Time;durP1;ratioP1;P1;durP2;ratioP2;P2;SDS_P1;SDS_P2;PMS_P1;PMS_P2;Temp;Humidity;BMP_temperature;BMP_pressure;BME280_temperature;BME280_humidity;BME280_pressure;Samples;Min_cycle;Max_cycle;Signal;HPM_P1;HPM_P2
2021/11/19 00:00:12;;;;;;;23.13;12.85;;;;;;;7.90;100.00;102144.38;682398;28;1907;-56
2021/11/19 00:00:42;;;;;;;26.77;12.70;;;;;;;7.89;100.00;102145.22;681243;28;1141;-52
2021/11/19 00:01:14;;;;;;;25.73;13.40;;;;;;;7.91;100.00;102144.41;680545;28;4429;-56
2021/11/19 00:01:39;;;;;;;25.13;11.98;;;;;;;7.89;100.00;102147.81;682641;28;1145;-53
2021/11/19 00:02:00;;;;;;;23.85;12.35;;;;;;;7.86;100.00;102142.53;682633;28;1181;-55
2021/11/19 00:02:21;;;;;;;24.00;12.35;;;;;;;7.83;100.00;102141.56;682318;28;988;-53
2021/11/19 00:02:42;;;;;;;25.23;12.13;;;;;;;7.82;100.00;102141.53;682228;28;1159;-53
2021/11/19 00:03:02;;;;;;;26.50;12.75;;;;;;;7.83;100.00;102149.38;683018;28;3267;-51
2021/11/19 00:03:24;;;;;;;24.63;12.50;;;;;;;8.00;100.00;102136.88;680093;28;3523;-55
2021/11/19 00:03:45;;;;;;;23.40;12.70;;;;;;;7.98;100.00;102146.34;679665;28;2156;-52
2021/11/19 00:04:06;;;;;;;22.30;12.53;;;;;;;7.97;100.00;102146.31;679113;28;4999;-53
2021/11/19 00:04:30;;;;;;;22.73;12.38;;;;;;;7.94;100.00;102143.63;680867;29;1284;-57
2021/11/19 00:04:51;;;;;;;21.95;12.30;;;;;;;7.89;100.00;102143.50;681523;28;1309;-53
2021/11/19 00:05:11;;;;;;;25.57;12.77;;;;;;;7.90;100.00;102149.59;682526;28;1248;-54
2021/11/19 00:05:32;;;;;;;25.08;13.15;;;;;;;7.87;100.00;102145.16;683024;28;1132;-56
2021/11/19 00:05:53;;;;;;;25.48;13.18;;;;;;;7.89;100.00;102142.59;683205;28;1225;-51
2021/11/19 00:06:15;;;;;;;23.42;12.70;;;;;;;7.87;100.00;102144.28;682084;28;3470;-56
2021/11/19 00:06:35;;;;;;;24.67;12.73;;;;;;;7.87;100.00;102149.50;680288;28;1314;-55
2021/11/19 00:06:56;;;;;;;26.53;12.00;;;;;;;7.84;100.00;102143.34;680537;29;1580;-56
2021/11/19 00:07:16;;;;;;;25.67;12.47;;;;;;;7.86;100.00;102147.72;678901;28;4686;-54
2021/11/19 00:07:37;;;;;;;23.57;12.90;;;;;;;7.84;100.00;102147.69;682186;28;1020;-56
2021/11/19 00:07:58;;;;;;;22.53;12.37;;;;;;;7.82;100.00;102145.03;682814;28;1270;-56
2021/11/19 00:08:25;;;;;;;24.38;11.85;;;;;;;7.82;100.00;102142.44;682394;28;1962;-52
2021/11/19 00:08:47;;;;;;;24.63;12.63;;;;;;;7.83;100.00;102143.31;685225;28;1088;-53
2021/11/19 00:09:08;;;;;;;23.85;12.38;;;;;;;7.83;100.00;102145.91;684515;28;2064;-52
2021/11/19 00:09:30;;;;;;;22.90;11.80;;;;;;;7.81;100.00;102145.88;682281;28;1437;-53
2021/11/19 00:09:52;;;;;;;22.25;12.48;;;;;;;7.81;100.00;102145.88;679862;29;1228;-56
2021/11/19 00:10:13;;;;;;;24.45;12.85;;;;;;;7.80;100.00;102145.81;682018;28;4744;-55
2021/11/19 00:10:34;;;;;;;24.17;13.10;;;;;;;7.79;100.00;102144.91;682709;28;1309;-57
2021/11/19 00:10:57;;;;;;;24.42;13.10;;;;;;;7.78;100.00;102140.56;682338;28;1170;-53
2021/11/19 00:11:21;;;;;;;24.77;12.55;;;;;;;7.77;100.00;102144.00;681609;28;1032;-53
2021/11/19 00:11:44;;;;;;;24.90;12.85;;;;;;;7.76;100.00;102137.03;682308;28;1196;-56
2021/11/19 00:12:05;;;;;;;25.77;13.18;;;;;;;7.77;100.00;102151.81;680781;28;3738;-54
2021/11/19 00:12:26;;;;;;;27.13;13.10;;;;;;;7.77;100.00;102144.00;680062;28;1387;-52
2021/11/19 00:12:46;;;;;;;23.50;13.23;;;;;;;7.76;100.00;102136.16;679175;29;1342;-53
2021/11/19 00:13:07;;;;;;;26.30;13.10;;;;;;;7.77;100.00;102149.22;679344;28;4335;-56
2021/11/19 00:13:28;;;;;;;23.88;12.88;;;;;;;7.77;100.00;102144.00;680420;29;1427;-56
2021/11/19 00:13:49;;;;;;;22.92;12.57;;;;;;;7.75;100.00;102142.19;679037;29;1272;-56
2021/11/19 00:14:11;;;;;;;25.70;12.52;;;;;;;7.75;100.00;102147.38;679261;28;1603;-54
2021/11/19 00:14:31;;;;;;;26.73;12.85;;;;;;;7.75;100.00;102142.19;679493;29;1232;-54
2021/11/19 00:14:52;;;;;;;27.93;13.73;;;;;;;7.74;100.00;102138.72;680284;28;1946;-52
2021/11/19 00:15:14;;;;;;;28.85;14.05;;;;;;;7.77;100.00;102141.41;680654;28;3570;-57
2021/11/19 00:15:35;;;;;;;25.35;13.05;;;;;;;7.77;100.00;102144.00;680629;28;1073;-54
2021/11/19 00:15:57;;;;;;;24.38;13.27;;;;;;;7.76;100.00;102139.63;680499;28;1420;-54
2021/11/19 00:16:19;;;;;;;26.58;13.30;;;;;;;7.75;100.00;102137.84;679409;28;4451;-57
2021/11/19 00:16:42;;;;;;;26.20;13.23;;;;;;;7.75;100.00;102140.44;681267;28;1248;-54
2021/11/19 00:17:05;;;;;;;24.10;13.23;;;;;;;7.77;100.00;102140.53;680423;28;1243;-55
2021/11/19 00:17:26;;;;;;;25.27;13.60;;;;;;;7.77;100.00;102133.59;679962;28;1288;-55
2021/11/19 00:17:47;;;;;;;26.77;13.52;;;;;;;7.77;100.00;102141.41;679786;28;2168;-57
2021/11/19 00:18:07;;;;;;;32.10;13.73;;;;;;;7.77;100.00;102133.59;679504;28;3586;-56
2021/11/19 00:18:28;;;;;;;24.00;12.85;;;;;;;7.76;100.00;102146.56;680199;28;1346;-53
2021/11/19 00:18:49;;;;;;;25.33;13.03;;;;;;;7.77;100.00;102137.94;680446;28;1593;-53
2021/11/19 00:19:11;;;;;;;26.05;13.15;;;;;;;7.75;100.00;102135.25;680340;28;4414;-55
2021/11/19 00:19:38;;;;;;;27.55;14.00;;;;;;;7.76;100.00;102137.03;683702;28;1267;-53
2021/11/19 00:19:59;;;;;;;26.77;13.75;;;;;;;7.75;100.00;102134.38;680366;28;1146;-53
2021/11/19 00:20:22;;;;;;;26.30;13.60;;;;;;;7.75;100.00;102143.06;680699;28;1133;-58
2021/11/19 00:20:43;;;;;;;28.35;13.32;;;;;;;7.74;100.00;102138.72;679966;28;2978;-57
2021/11/19 00:21:04;;;;;;;28.75;13.75;;;;;;;7.73;100.00;102131.72;680301;28;3877;-54
2021/11/19 00:21:28;;;;;;;24.80;13.27;;;;;;;7.74;100.00;102135.19;681432;28;1369;-55
2021/11/19 00:21:48;;;;;;;27.85;13.63;;;;;;;7.74;100.00;102136.09;679092;28;1237;-55
2021/11/19 00:22:11;;;;;;;23.40;12.57;;;;;;;7.73;100.00;102142.16;678784;28;4565;-53
2021/11/19 00:22:31;;;;;;;22.00;12.50;;;;;;;7.73;100.00;102142.16;681338;28;1216;-55
2021/11/19 00:22:52;;;;;;;21.52;12.55;;;;;;;7.74;100.00;102143.00;680041;28;1480;-56
2021/11/19 00:23:13;;;;;;;25.03;12.70;;;;;;;7.74;100.00;102137.81;680790;28;1438;-56
2021/11/19 00:23:34;;;;;;;22.70;13.20;;;;;;;7.74;100.00;102145.63;680256;28;1203;-57
2021/11/19 00:23:55;;;;;;;25.30;13.55;;;;;;;7.73;100.00;102144.75;680155;28;3062;-56
2021/11/19 00:24:15;;;;;;;29.33;14.88;;;;;;;7.73;100.00;102139.53;680758;28;3388;-58
2021/11/19 00:24:37;;;;;;;29.17;15.93;;;;;;;7.74;100.00;102137.81;680741;28;1477;-54
2021/11/19 00:24:57;;;;;;;26.55;15.15;;;;;;;7.73;100.00;102142.16;679222;28;1586;-57
2021/11/19 00:25:18;;;;;;;23.80;13.20;;;;;;;7.73;100.00;102142.16;680376;28;4400;-54
2021/11/19 00:25:38;;;;;;;21.88;13.13;;;;;;;7.72;100.00;102140.38;681109;28;1583;-57
2021/11/19 00:25:59;;;;;;;23.80;13.37;;;;;;;7.73;100.00;102143.88;680360;28;1239;-53
2021/11/19 00:26:21;;;;;;;26.60;13.38;;;;;;;7.73;100.00;102146.47;679766;28;1140;-54
2021/11/19 00:26:43;;;;;;;26.40;14.82;;;;;;;7.73;100.00;102144.75;681570;28;3090;-54
2021/11/19 00:27:06;;;;;;;26.33;15.07;;;;;;;7.75;100.00;102136.97;682247;28;3614;-54
2021/11/19 00:27:26;;;;;;;28.80;14.95;;;;;;;7.76;100.00;102141.34;682892;28;1432;-55
2021/11/19 00:27:47;;;;;;;28.23;14.53;;;;;;;7.75;100.00;102139.59;685309;28;1460;-56
2021/11/19 00:28:08;;;;;;;24.07;13.97;;;;;;;7.74;100.00;102133.50;683702;28;4640;-54
2021/11/19 00:28:28;;;;;;;24.10;13.65;;;;;;;7.76;100.00;102144.84;683518;28;1918;-56
2021/11/19 00:28:49;;;;;;;22.27;13.07;;;;;;;7.74;100.00;102137.81;683719;28;1216;-55
2021/11/19 00:29:12;;;;;;;23.48;13.35;;;;;;;7.74;100.00;102140.41;680596;28;1521;-56
2021/11/19 00:29:33;;;;;;;26.73;14.75;;;;;;;7.75;100.00;102145.66;678143;28;1450;-52
2021/11/19 00:29:53;;;;;;;28.40;15.18;;;;;;;7.76;100.00;102143.97;675648;29;3530;-56
2021/11/19 00:30:17;;;;;;;26.60;14.17;;;;;;;7.76;100.00;102146.56;675334;29;3556;-56
2021/11/19 00:30:39;;;;;;;26.20;14.40;;;;;;;7.75;100.00;102145.66;677757;29;1114;-54
2021/11/19 00:31:00;;;;;;;24.67;14.68;;;;;;;7.74;100.00;102141.31;677311;28;4454;-55
2021/11/19 00:31:23;;;;;;;26.52;14.52;;;;;;;7.74;100.00;102138.72;682649;28;2505;-57
2021/11/19 00:31:46;;;;;;;29.95;13.93;;;;;;;7.75;100.00;102143.06;682614;28;1347;-55
2021/11/19 00:32:08;;;;;;;29.75;13.80;;;;;;;7.74;100.00;102149.13;681761;28;1200;-54
2021/11/19 00:32:28;;;;;;;25.40;13.45;;;;;;;7.75;100.00;102150.88;682082;28;1249;-52
2021/11/19 00:32:49;;;;;;;23.50;13.63;;;;;;;7.74;100.00;102143.91;682740;28;3294;-56
2021/11/19 00:33:13;;;;;;;24.45;13.27;;;;;;;7.75;100.00;102142.19;684105;28;3497;-53
2021/11/19 00:33:36;;;;;;;24.85;13.20;;;;;;;7.76;100.00;102146.56;684802;28;1398;-55
2021/11/19 00:33:57;;;;;;;22.75;13.48;;;;;;;7.76;100.00;102152.63;685816;28;1287;-56
2021/11/19 00:34:18;;;;;;;24.80;13.02;;;;;;;7.76;100.00;102142.22;684100;28;4465;-53
2021/11/19 00:34:40;;;;;;;24.92;13.30;;;;;;;7.75;100.00;102143.06;684437;28;1183;-56
2021/11/19 00:35:00;;;;;;;24.60;13.55;;;;;;;7.76;100.00;102144.84;682938;28;1229;-53
2021/11/19 00:35:21;;;;;;;24.40;13.70;;;;;;;7.76;100.00;102141.34;679594;29;1278;-54
2021/11/19 00:35:44;;;;;;;25.33;13.55;;;;;;;7.76;100.00;102142.22;677565;29;3392;-56
2021/11/19 00:36:08;;;;;;;24.77;14.07;;;;;;;7.93;100.00;102144.47;677361;29;1251;-58
2021/11/19 00:36:31;;;;;;;26.17;14.48;;;;;;;8.09;100.00;102141.47;678928;29;3035;-55
2021/11/19 00:36:55;;;;;;;25.50;14.07;;;;;;;8.14;100.00;102139.91;681023;28;1447;-52
2021/11/19 00:37:17;;;;;;;24.27;14.00;;;;;;;8.13;100.00;102143.31;682864;28;4415;-56
2021/11/19 00:37:39;;;;;;;27.15;14.15;;;;;;;8.10;100.00;102145.84;683095;28;1117;-56
2021/11/19 00:38:01;;;;;;;27.95;14.27;;;;;;;8.08;100.00;102134.50;679128;28;1381;-53
2021/11/19 00:38:21;;;;;;;26.60;13.63;;;;;;;8.31;100.00;102136.88;682845;28;1221;-57
2021/11/19 00:38:43;;;;;;;27.65;14.20;;;;;;;8.27;100.00;102137.66;682800;28;3223;-52
2021/11/19 00:39:08;;;;;;;25.08;13.80;;;;;;;8.22;100.00;102136.63;679998;28;1173;-51
2021/11/19 00:39:29;;;;;;;22.83;13.40;;;;;;;8.17;100.00;102139.09;680914;28;1265;-57
2021/11/19 00:39:50;;;;;;;24.48;14.32;;;;;;;8.13;100.00;102138.13;683525;28;1485;-56
2021/11/19 00:40:19;;;;;;;26.20;13.90;;;;;;;8.10;100.00;102143.25;682707;28;4426;-55
2021/11/19 00:40:53;;;;;;;28.92;15.25;;;;;;;8.06;100.00;102135.28;680714;28;1449;-57
2021/11/19 00:41:14;;;;;;;31.38;15.57;;;;;;;8.02;100.00;102143.00;679197;28;1330;-55
2021/11/19 00:41:36;;;;;;;26.00;14.73;;;;;;;8.00;100.00;102134.28;679507;28;3018;-54
2021/11/19 00:41:56;;;;;;;28.95;14.85;;;;;;;7.99;100.00;102134.25;679493;28;3836;-53
2021/11/19 00:42:18;;;;;;;29.35;14.98;;;;;;;7.99;100.00;102134.25;680739;28;1503;-55
2021/11/19 00:42:38;;;;;;;29.50;15.70;;;;;;;7.97;100.00;102135.91;685489;28;1566;-55
2021/11/19 00:42:59;;;;;;;27.07;15.47;;;;;;;7.95;100.00;102137.59;683071;28;4522;-56
2021/11/19 00:43:21;;;;;;;25.25;15.05;;;;;;;7.93;100.00;102136.66;679890;28;1464;-54
2021/11/19 00:43:42;;;;;;;27.58;15.27;;;;;;;7.93;100.00;102139.25;680959;29;1069;-51
2021/11/19 00:44:04;;;;;;;25.38;14.98;;;;;;;7.92;100.00;102137.47;678375;29;1309;-56
2021/11/19 00:44:26;;;;;;;27.52;14.85;;;;;;;7.94;100.00;102138.41;677393;29;1125;-52
2021/11/19 00:44:47;;;;;;;28.48;15.02;;;;;;;7.93;100.00;102139.25;675377;29;2229;-55
2021/11/19 00:45:08;;;;;;;30.07;15.27;;;;;;;7.91;100.00;102140.94;680785;28;1175;-51
2021/11/19 00:45:28;;;;;;;29.67;15.07;;;;;;;7.91;100.00;102135.75;683425;28;1526;-54
2021/11/19 00:45:50;;;;;;;26.95;14.85;;;;;;;7.93;100.00;102139.25;684065;28;1132;-53
2021/11/19 00:46:12;;;;;;;27.42;14.90;;;;;;;7.98;100.00;102135.06;682177;28;4463;-53
2021/11/19 00:46:36;;;;;;;26.77;15.25;;;;;;;8.01;100.00;102142.97;679003;28;1395;-51
2021/11/19 00:46:58;;;;;;;26.42;14.02;;;;;;;8.00;100.00;102136.88;678756;29;1168;-54
2021/11/19 00:47:18;;;;;;;23.80;13.88;;;;;;;8.00;100.00;102136.88;677946;29;1140;-54
2021/11/19 00:47:39;;;;;;;24.75;14.30;;;;;;;8.04;100.00;102137.84;674276;29;4154;-52
2021/11/19 00:48:00;;;;;;;27.47;14.17;;;;;;;8.06;100.00;102136.19;678533;29;4075;-55
2021/11/19 00:48:24;;;;;;;27.65;14.27;;;;;;;8.05;100.00;102137.00;680719;28;1915;-51
2021/11/19 00:48:44;;;;;;;26.67;14.43;;;;;;;8.05;100.00;102138.75;682942;28;1117;-54
2021/11/19 00:49:06;;;;;;;26.00;14.15;;;;;;;8.03;100.00;102141.31;679700;28;4609;-54
2021/11/19 00:49:31;;;;;;;25.67;14.10;;;;;;;8.01;100.00;102133.41;678107;29;1233;-56
2021/11/19 00:49:53;;;;;;;26.20;13.95;;;;;;;8.15;100.00;102131.22;679922;28;1414;-54
2021/11/19 00:50:13;;;;;;;23.35;13.80;;;;;;;8.27;100.00;102130.69;682090;28;1501;-52
2021/11/19 00:50:42;;;;;;;26.50;13.68;;;;;;;8.22;100.00;102137.50;679689;29;3432;-52
2021/11/19 00:51:15;;;;;;;24.90;14.10;;;;;;;8.21;100.00;102135.75;682949;28;1523;-53
2021/11/19 00:51:42;;;;;;;23.98;13.88;;;;;;;8.17;100.00;102133.91;683758;28;1713;-56
2021/11/19 00:52:04;;;;;;;25.90;13.75;;;;;;;8.19;100.00;102137.41;682025;28;4545;-56
2021/11/19 00:52:24;;;;;;;26.52;14.02;;;;;;;8.19;100.00;102140.88;681193;28;1326;-52
2021/11/19 00:52:45;;;;;;;28.25;13.73;;;;;;;8.18;100.00;102143.44;678434;29;2695;-56
2021/11/19 00:53:06;;;;;;;24.63;13.23;;;;;;;8.15;100.00;102140.75;677801;29;1176;-53
2021/11/19 00:53:27;;;;;;;23.77;12.85;;;;;;;8.15;100.00;102136.44;678731;28;3801;-54
2021/11/19 00:53:51;;;;;;;25.77;13.88;;;;;;;8.13;100.00;102138.13;680318;28;3917;-56
2021/11/19 00:54:16;;;;;;;27.48;14.20;;;;;;;8.12;100.00;102136.34;678418;29;1460;-55
2021/11/19 00:54:37;;;;;;;29.23;13.98;;;;;;;8.12;100.00;102135.47;679505;28;1151;-52
2021/11/19 00:54:57;;;;;;;25.40;14.07;;;;;;;8.11;100.00;102139.81;680474;28;1146;-55
2021/11/19 00:55:18;;;;;;;24.83;14.50;;;;;;;8.11;100.00;102139.81;680069;28;4348;-51
2021/11/19 00:55:39;;;;;;;23.98;14.57;;;;;;;8.10;100.00;102134.53;680970;28;1330;-55
2021/11/19 00:56:00;;;;;;;25.52;14.40;;;;;;;8.08;100.00;102131.00;679279;28;1556;-56
2021/11/19 00:56:28;;;;;;;27.00;14.43;;;;;;;8.06;100.00;102138.78;679990;28;3209;-55
2021/11/19 00:56:53;;;;;;;27.98;14.73;;;;;;;8.04;100.00;102143.06;678377;28;3467;-53
2021/11/19 00:57:16;;;;;;;25.70;14.25;;;;;;;8.01;100.00;102136.03;681686;28;1526;-54
2021/11/19 00:57:37;;;;;;;27.13;13.93;;;;;;;8.02;100.00;102139.53;677289;29;1481;-52
2021/11/19 00:57:58;;;;;;;26.63;13.88;;;;;;;8.02;100.00;102140.41;682486;28;1367;-54
2021/11/19 00:58:21;;;;;;;27.53;14.90;;;;;;;8.02;100.00;102136.94;677296;28;4667;-57
2021/11/19 00:58:44;;;;;;;27.02;15.10;;;;;;;8.02;100.00;102140.41;682865;28;1295;-55
2021/11/19 00:59:07;;;;;;;25.80;14.80;;;;;;;8.00;100.00;102136.88;681795;28;1383;-53
2021/11/19 00:59:29;;;;;;;27.27;15.05;;;;;;;7.99;100.00;102140.31;684615;28;3613;-56
2021/11/19 00:59:50;;;;;;;27.33;14.27;;;;;;;7.99;100.00;102140.31;681482;28;1399;-55
2021/11/19 01:00:18;;;;;;;29.35;14.88;;;;;;;7.99;100.00;102136.84;679517;28;1598;-53
2021/11/19 01:00:57;;;;;;;27.65;15.00;;;;;;;7.97;100.00;102139.38;676901;29;1533;-55
2021/11/19 01:01:28;;;;;;;29.15;14.55;;;;;;;7.96;100.00;102136.72;672671;29;4591;-52
2021/11/19 01:01:52;;;;;;;26.25;14.43;;;;;;;7.95;100.00;102138.47;673551;29;1341;-53
2021/11/19 01:02:17;;;;;;;26.83;14.05;;;;;;;7.95;100.00;102137.59;678991;28;1451;-54
2021/11/19 01:02:38;;;;;;;24.85;14.48;;;;;;;7.94;100.00;102128.88;681975;28;3629;-54
2021/11/19 01:02:58;;;;;;;25.63;13.90;;;;;;;7.93;100.00;102140.13;682429;28;1365;-54
2021/11/19 01:03:20;;;;;;;28.10;13.60;;;;;;;7.94;100.00;102141.03;682107;28;1086;-56
2021/11/19 01:03:40;;;;;;;25.08;13.75;;;;;;;7.96;100.00;102139.34;683007;28;1554;-54
2021/11/19 01:04:05;;;;;;;26.08;14.13;;;;;;;7.96;100.00;102134.13;678418;28;5270;-53
2021/11/19 01:04:27;;;;;;;27.58;14.43;;;;;;;8.00;100.00;102135.97;676612;29;1899;-51
2021/11/19 01:04:50;;;;;;;25.63;14.15;;;;;;;7.99;100.00;102137.72;678227;29;1281;-52
2021/11/19 01:05:11;;;;;;;24.58;13.43;;;;;;;8.00;100.00;102141.19;679211;29;1395;-52
2021/11/19 01:05:31;;;;;;;24.13;13.20;;;;;;;7.98;100.00;102142.88;679298;29;3445;-55
2021/11/19 01:05:53;;;;;;;23.67;13.33;;;;;;;7.96;100.00;102137.63;679704;29;1715;-52
2021/11/19 01:06:14;;;;;;;23.63;14.05;;;;;;;7.94;100.00;102138.41;677113;29;1353;-55
2021/11/19 01:06:36;;;;;;;24.25;14.02;;;;;;;7.94;100.00;102154.03;678003;28;1138;-53
2021/11/19 01:06:59;;;;;;;26.60;13.85;;;;;;;7.93;100.00;102152.28;679176;28;4615;-54
2021/11/19 01:07:22;;;;;;;26.15;13.93;;;;;;;7.92;100.00;102146.19;676675;29;1497;-53
2021/11/19 01:07:42;;;;;;;27.17;14.18;;;;;;;7.91;100.00;102144.41;673721;29;1289;-52
2021/11/19 01:08:03;;;;;;;27.33;14.23;;;;;;;7.91;100.00;102148.75;672713;29;1314;-52
2021/11/19 01:08:25;;;;;;;24.85;14.35;;;;;;;7.91;100.00;102140.94;670576;29;3875;-52
2021/11/19 01:08:46;;;;;;;25.13;13.10;;;;;;;7.91;100.00;102143.53;671241;29;1234;-54
2021/11/19 01:09:11;;;;;;;23.23;12.97;;;;;;;7.89;100.00;102147.81;674973;29;1220;-53
2021/11/19 01:09:35;;;;;;;23.25;12.98;;;;;;;7.87;100.00;102146.91;681186;28;1243;-53
2021/11/19 01:09:58;;;;;;;22.42;14.13;;;;;;;7.87;100.00;102145.16;682195;28;1136;-55
2021/11/19 01:10:24;;;;;;;25.83;14.43;;;;;;;7.87;100.00;102149.50;681332;28;6604;-53
2021/11/19 01:10:46;;;;;;;28.80;15.05;;;;;;;7.87;100.00;102141.69;679420;28;1197;-56
2021/11/19 01:11:11;;;;;;;24.27;14.00;;;;;;;7.86;100.00;102139.91;678608;29;1303;-51
2021/11/19 01:11:33;;;;;;;25.02;13.75;;;;;;;7.86;100.00;102142.53;673374;29;3486;-53
2021/11/19 01:11:55;;;;;;;26.52;14.00;;;;;;;7.86;100.00;102139.91;678795;29;1450;-53
2021/11/19 01:12:19;;;;;;;27.83;14.30;;;;;;;7.86;100.00;102142.53;684060;28;1493;-54
2021/11/19 01:12:41;;;;;;;25.15;14.38;;;;;;;7.86;100.00;102142.53;682447;28;1418;-52
2021/11/19 01:13:03;;;;;;;25.25;14.20;;;;;;;7.86;100.00;102146.00;683455;28;4446;-51
2021/11/19 01:13:24;;;;;;;24.98;13.57;;;;;;;7.85;100.00;102141.66;679722;29;1236;-54
2021/11/19 01:13:48;;;;;;;24.95;14.10;;;;;;;7.85;100.00;102139.03;677254;29;2011;-55
2021/11/19 01:14:15;;;;;;;26.23;14.52;;;;;;;7.84;100.00;102145.94;678386;29;1335;-55
2021/11/19 01:14:38;;;;;;;26.17;14.82;;;;;;;7.83;100.00;102144.19;680227;28;3499;-53
2021/11/19 01:15:12;;;;;;;28.23;14.38;;;;;;;7.83;100.00;102143.31;680758;28;3258;-52
2021/11/19 01:15:43;;;;;;;29.67;14.75;;;;;;;7.83;100.00;102144.19;680726;29;1371;-54
2021/11/19 01:16:11;;;;;;;24.00;14.10;;;;;;;7.84;100.00;102145.94;671055;29;4545;-55
2021/11/19 01:16:36;;;;;;;20.83;13.15;;;;;;;7.83;100.00;102149.38;672530;29;1345;-53
2021/11/19 01:17:01;;;;;;;25.95;13.82;;;;;;;7.82;100.00;102141.53;676569;29;2936;-53
2021/11/19 01:17:34;;;;;;;27.23;14.30;;;;;;;7.82;100.00;102147.63;677806;29;1808;-56
2021/11/19 01:17:59;;;;;;;25.23;13.98;;;;;;;7.84;100.00;102145.06;682438;28;1373;-56
2021/11/19 01:18:32;;;;;;;27.90;15.20;;;;;;;7.86;100.00;102147.72;683757;28;1424;-54
2021/11/19 01:18:56;;;;;;;26.10;15.43;;;;;;;7.83;100.00;102146.78;683211;28;1223;-54
2021/11/19 01:19:26;;;;;;;27.60;15.65;;;;;;;7.84;100.00;102153.75;681760;28;4331;-53
2021/11/19 01:20:32;;;;;;;26.35;14.77;;;;;;;7.83;100.00;102149.38;679247;28;1295;-55
2021/11/19 01:21:00;;;;;;;27.05;14.40;;;;;;;7.83;100.00;102144.19;674825;29;1458;-56
2021/11/19 01:21:31;;;;;;;28.10;14.80;;;;;;;7.86;100.00;102150.31;676761;29;1379;-54
2021/11/19 01:21:56;;;;;;;28.80;14.75;;;;;;;7.86;100.00;102146.00;680188;28;2176;-54
2021/11/19 01:22:21;;;;;;;27.17;14.10;;;;;;;7.85;100.00;102152.06;680499;28;4411;-52
2021/11/19 01:22:45;;;;;;;25.95;14.00;;;;;;;7.84;100.00;102156.38;680380;28;1264;-55
2021/11/19 01:23:10;;;;;;;27.33;14.40;;;;;;;7.84;100.00;102145.94;681795;28;3368;-55
2021/11/19 01:23:31;;;;;;;27.17;14.18;;;;;;;7.85;100.00;102146.84;685868;28;2374;-52
2021/11/19 01:23:52;;;;;;;26.63;14.63;;;;;;;7.85;100.00;102146.84;683525;28;1516;-56
2021/11/19 01:24:15;;;;;;;25.65;14.43;;;;;;;7.86;100.00;102150.31;684015;28;1472;-54
2021/11/19 01:24:36;;;;;;;28.20;14.50;;;;;;;7.87;100.00;102154.72;684119;28;1245;-57
2021/11/19 01:24:57;;;;;;;28.65;13.93;;;;;;;7.86;100.00;102148.59;681931;28;1233;-56
2021/11/19 01:25:20;;;;;;;24.45;14.02;;;;;;;7.87;100.00;102152.09;680078;28;4589;-54
2021/11/19 01:25:49;;;;;;;28.58;14.93;;;;;;;7.87;100.00;102158.19;679057;29;1725;-54
2021/11/19 01:26:13;;;;;;;27.90;14.48;;;;;;;7.86;100.00;102151.19;678282;29;3520;-52
2021/11/19 01:26:40;;;;;;;28.77;14.55;;;;;;;7.87;100.00;102152.97;680089;28;1336;-56
2021/11/19 01:27:01;;;;;;;25.38;13.90;;;;;;;7.87;100.00;102159.91;683854;28;1383;-57
2021/11/19 01:27:22;;;;;;;22.73;13.20;;;;;;;7.86;100.00;102153.81;684713;28;1180;-55
2021/11/19 01:27:43;;;;;;;24.98;13.45;;;;;;;7.87;100.00;102154.72;681517;28;1497;-54
2021/11/19 01:28:05;;;;;;;25.85;13.25;;;;;;;7.87;100.00;102152.09;680511;28;4543;-57
2021/11/19 01:28:26;;;;;;;24.90;13.35;;;;;;;7.86;100.00;102163.34;681246;28;1899;-56
2021/11/19 01:28:53;;;;;;;25.65;13.52;;;;;;;7.85;100.00;102157.28;680734;29;1144;-53
2021/11/19 01:29:18;;;;;;;25.80;14.05;;;;;;;7.85;100.00;102152.06;681200;28;3487;-54
2021/11/19 01:29:38;;;;;;;27.42;14.30;;;;;;;7.85;100.00;102159.88;683326;28;1275;-55
2021/11/19 01:29:59;;;;;;;28.38;14.25;;;;;;;7.84;100.00;102153.75;681700;28;1795;-56
2021/11/19 01:30:33;;;;;;;28.15;14.02;;;;;;;7.85;100.00;102157.28;679524;28;1378;-54
2021/11/19 01:30:58;;;;;;;23.05;13.55;;;;;;;7.84;100.00;102158.97;680241;29;1402;-54
2021/11/19 01:31:23;;;;;;;24.98;14.02;;;;;;;7.84;100.00;102152.88;678048;29;5000;-52
2021/11/19 01:31:58;;;;;;;24.92;13.77;;;;;;;7.86;100.00;102152.94;683795;28;1324;-55
2021/11/19 01:32:38;;;;;;;25.40;14.10;;;;;;;7.86;100.00;102158.13;680532;29;1385;-57
2021/11/19 01:33:08;;;;;;;25.20;13.80;;;;;;;7.84;100.00;102156.38;680507;28;2196;-52
2021/11/19 01:33:48;;;;;;;27.58;14.82;;;;;;;7.84;100.00;102156.38;676406;29;1289;-56
2021/11/19 01:34:32;;;;;;;26.80;14.35;;;;;;;7.87;100.00;102154.72;681487;28;5323;-55
2021/11/19 01:35:13;;;;;;;22.95;13.88;;;;;;;7.86;100.00;102155.53;680299;28;3318;-56
2021/11/19 01:35:53;;;;;;;24.25;13.57;;;;;;;7.86;100.00;102158.13;681073;28;1235;-54
2021/11/19 01:36:18;;;;;;;26.25;13.85;;;;;;;7.86;100.00;102158.13;679405;28;1101;-56
2021/11/19 01:36:54;;;;;;;26.50;13.65;;;;;;;7.85;100.00;102167.69;682676;28;1319;-52
2021/11/19 01:37:41;;;;;;;24.15;13.60;;;;;;;7.84;100.00;102155.50;682953;28;5149;-55
2021/11/19 01:38:13;;;;;;;24.38;14.35;;;;;;;7.87;100.00;102157.31;680920;28;3443;-54
2021/11/19 01:38:41;;;;;;;24.83;13.55;;;;;;;7.94;100.00;102161.84;678013;29;1403;-54
2021/11/19 01:39:21;;;;;;;24.70;13.48;;;;;;;7.93;100.00;102157.47;676804;29;3901;-57
2021/11/19 01:39:51;;;;;;;24.48;13.75;;;;;;;7.92;100.00;102155.69;677571;29;1409;-55
2021/11/19 01:40:32;;;;;;;28.02;13.85;;;;;;;7.90;100.00;102154.78;683069;28;5096;-55
2021/11/19 01:41:00;;;;;;;25.67;13.93;;;;;;;7.90;100.00;102166.06;682764;28;3811;-54
2021/11/19 01:41:33;;;;;;;21.75;13.15;;;;;;;7.89;100.00;102160.81;683072;28;3456;-55
2021/11/19 01:41:58;;;;;;;19.50;12.55;;;;;;;7.88;100.00;102156.44;683494;28;1256;-55
2021/11/19 01:42:25;;;;;;;22.98;13.02;;;;;;;7.86;100.00;102153.81;681349;28;1633;-53
2021/11/19 01:42:52;;;;;;;23.60;13.50;;;;;;;7.87;100.00;102155.56;684584;28;1459;-54
2021/11/19 01:43:13;;;;;;;25.45;13.52;;;;;;;7.87;100.00;102154.72;680028;28;4445;-55
2021/11/19 01:43:37;;;;;;;23.88;13.68;;;;;;;7.86;100.00;102153.81;676603;29;1196;-57
2021/11/19 01:44:09;;;;;;;22.85;12.80;;;;;;;7.86;100.00;102158.13;676004;29;3787;-53
2021/11/19 01:44:56;;;;;;;21.52;13.88;;;;;;;7.86;100.00;102159.00;678889;29;1255;-53
2021/11/19 01:45:21;;;;;;;26.50;14.32;;;;;;;7.86;100.00;102159.00;678743;29;1327;-54
2021/11/19 01:45:49;;;;;;;28.92;14.18;;;;;;;7.86;100.00;102159.00;683005;28;2163;-56
2021/11/19 01:46:16;;;;;;;23.60;13.40;;;;;;;7.85;100.00;102154.66;684999;28;4518;-55
2021/11/19 01:46:36;;;;;;;23.80;13.70;;;;;;;7.86;100.00;102158.13;683766;28;1343;-54
2021/11/19 01:47:01;;;;;;;25.52;13.35;;;;;;;7.85;100.00;102159.88;681335;28;3456;-55
2021/11/19 01:47:26;;;;;;;24.27;13.70;;;;;;;7.84;100.00;102156.38;678666;29;1265;-55
2021/11/19 01:47:51;;;;;;;24.52;13.80;;;;;;;7.84;100.00;102156.38;675236;29;1473;-55
2021/11/19 01:48:17;;;;;;;26.17;14.52;;;;;;;7.84;100.00;102160.69;678702;29;1419;-56
2021/11/19 01:48:40;;;;;;;22.33;13.80;;;;;;;7.83;100.00;102159.78;674974;29;1926;-55
2021/11/19 01:49:03;;;;;;;23.63;13.65;;;;;;;7.83;100.00;102158.94;675180;29;4455;-56
2021/11/19 01:49:27;;;;;;;26.90;13.82;;;;;;;7.83;100.00;102157.19;678958;28;1263;-55
2021/11/19 01:49:48;;;;;;;26.65;13.52;;;;;;;7.84;100.00;102160.69;681304;28;3422;-54
2021/11/19 01:50:17;;;;;;;28.65;14.02;;;;;;;7.83;100.00;102162.41;674841;29;3300;-57
2021/11/19 01:50:41;;;;;;;25.35;13.98;;;;;;;7.83;100.00;102158.94;674814;29;1247;-55
2021/11/19 01:51:10;;;;;;;28.38;13.85;;;;;;;7.83;100.00;102159.78;678721;29;1236;-57
2021/11/19 01:51:40;;;;;;;22.88;13.48;;;;;;;7.83;100.00;102159.78;681364;28;1907;-52